Time;durP1;ratioP1;P1;durP2;ratioP2;P2;SDS_P1;SDS_P2;PMS_P1;PMS_P2;Temp;Humidity;BMP_temperature;BMP_pressure;BME280_temperature;BME280_humidity;BME280_pressure;Samples;Min_cycle;Max_cycle;Signal;HPM_P1;HPM_P2
2022/07/25 00:03:09;;;;;;;4.85;3.35;;;;;;;;;;8391833;28;20036;-86
2022/07/25 00:07:11;;;;;;;6.03;3.38;;;;;;;;;;8384772;28;20044;-86
2022/07/25 00:11:14;;;;;;;6.35;3.50;;;;;;;;;;8389001;28;20049;-86
2022/07/25 00:15:17;;;;;;;3.80;3.17;;;;;;;;;;8390639;28;20048;-86
2022/07/25 00:19:21;;;;;;;4.10;3.20;;;;;;;;;;8388701;28;20044;-86
2022/07/25 00:23:24;;;;;;;3.72;2.70;;;;;;;;;;8388630;28;20067;-86
2022/07/25 00:27:27;;;;;;;5.05;3.03;;;;;;;;;;8388372;28;20057;-85
2022/07/25 00:31:29;;;;;;;4.60;3.00;;;;;;;;;;8391070;28;20472;-86
2022/07/25 00:35:33;;;;;;;5.20;3.10;;;;;;;;;;8387959;28;20056;-86
2022/07/25 00:39:36;;;;;;;5.25;3.28;;;;;;;;;;8386714;28;20047;-86
2022/07/25 00:43:43;;;;;;;4.63;3.13;;;;;;;;;;8389854;28;20040;-86
2022/07/25 00:47:45;;;;;;;4.97;3.10;;;;;;;;;;8388349;28;20471;-86
2022/07/25 00:51:51;;;;;;;4.93;3.15;;;;;;;;;;8380921;28;20045;-86
2022/07/25 00:55:54;;;;;;;5.10;3.15;;;;;;;;;;8389833;28;20117;-86
2022/07/25 00:59:57;;;;;;;6.38;3.28;;;;;;;;;;8382881;28;20044;-88
2022/07/25 01:04:00;;;;;;;4.57;3.08;;;;;;;;;;8366632;28;20120;-87
2022/07/25 01:08:05;;;;;;;4.78;3.05;;;;;;;;;;8366985;28;20401;-86
2022/07/25 01:12:08;;;;;;;4.63;3.28;;;;;;;;;;8365801;28;20040;-85
2022/07/25 01:16:11;;;;;;;4.88;3.00;;;;;;;;;;8362968;28;20128;-86
2022/07/25 01:20:16;;;;;;;5.55;3.45;;;;;;;;;;8363262;28;20102;-86
2022/07/25 01:24:19;;;;;;;7.18;3.97;;;;;;;;;;8363780;28;20124;-86
2022/07/25 01:28:22;;;;;;;4.93;3.70;;;;;;;;;;8366752;28;20056;-86
2022/07/25 01:32:25;;;;;;;5.63;3.55;;;;;;;;;;8366374;28;20131;-86
2022/07/25 01:36:35;;;;;;;9.80;3.80;;;;;;;;;;8384142;28;20076;-86
2022/07/25 01:40:39;;;;;;;4.95;3.33;;;;;;;;;;8376456;28;20446;-86
2022/07/25 01:44:41;;;;;;;5.97;3.95;;;;;;;;;;8372919;28;20041;-86
2022/07/25 01:48:44;;;;;;;5.82;3.53;;;;;;;;;;8387760;28;20499;-91
2022/07/25 01:52:48;;;;;;;5.53;3.53;;;;;;;;;;8394210;28;20041;-86
2022/07/25 01:56:51;;;;;;;8.27;3.75;;;;;;;;;;8380387;28;20107;-85
2022/07/25 02:00:54;;;;;;;7.53;4.05;;;;;;;;;;8381199;28;20122;-88
2022/07/25 02:04:56;;;;;;;7.25;3.55;;;;;;;;;;8398024;28;20040;-86
2022/07/25 02:09:00;;;;;;;5.93;3.58;;;;;;;;;;8378962;28;20051;-87
2022/07/25 02:13:03;;;;;;;6.43;3.50;;;;;;;;;;8402608;28;20144;-87
2022/07/25 02:17:06;;;;;;;4.63;3.20;;;;;;;;;;8390793;28;20033;-87
2022/07/25 02:21:09;;;;;;;7.00;3.33;;;;;;;;;;8386952;28;20044;-86
2022/07/25 02:25:13;;;;;;;8.02;3.63;;;;;;;;;;8401090;28;20041;-86
2022/07/25 02:29:16;;;;;;;7.90;3.80;;;;;;;;;;8395539;28;20471;-85
2022/07/25 02:33:18;;;;;;;5.63;3.60;;;;;;;;;;8385401;28;20040;-85
2022/07/25 02:37:21;;;;;;;7.95;3.53;;;;;;;;;;8401644;28;20040;-85
2022/07/25 02:41:25;;;;;;;5.45;3.65;;;;;;;;;;8401572;28;20037;-85
2022/07/25 02:45:28;;;;;;;7.78;3.70;;;;;;;;;;8401439;28;20068;-86
2022/07/25 02:49:30;;;;;;;6.50;3.58;;;;;;;;;;8401276;28;20067;-85
2022/07/25 02:53:33;;;;;;;6.38;3.72;;;;;;;;;;8393752;28;20052;-85
2022/07/25 02:57:37;;;;;;;7.72;3.60;;;;;;;;;;8401216;28;20459;-86
2022/07/25 03:01:39;;;;;;;7.00;3.45;;;;;;;;;;8399832;28;20040;-85
2022/07/25 03:05:42;;;;;;;5.53;3.63;;;;;;;;;;8401006;28;20105;-85
2022/07/25 03:09:45;;;;;;;9.20;4.15;;;;;;;;;;8400767;28;20045;-86
2022/07/25 03:13:48;;;;;;;8.10;3.97;;;;;;;;;;8400630;28;20036;-86
2022/07/25 03:17:51;;;;;;;10.05;4.05;;;;;;;;;;8400524;28;20044;-86
2022/07/25 03:21:54;;;;;;;5.65;3.75;;;;;;;;;;8400958;28;20518;-85
2022/07/25 03:25:57;;;;;;;8.25;4.20;;;;;;;;;;8400501;28;20048;-86
2022/07/25 03:30:01;;;;;;;5.35;3.35;;;;;;;;;;8400033;28;20484;-86
2022/07/25 03:34:04;;;;;;;7.45;3.80;;;;;;;;;;8400094;28;20093;-86
2022/07/25 03:38:07;;;;;;;13.65;4.90;;;;;;;;;;8400021;28;20048;-86
2022/07/25 03:42:10;;;;;;;7.20;4.00;;;;;;;;;;8389779;28;20500;-86
2022/07/25 03:46:14;;;;;;;6.45;3.80;;;;;;;;;;8385867;28;20145;-86
2022/07/25 03:50:17;;;;;;;5.97;3.83;;;;;;;;;;8385729;28;20044;-86
2022/07/25 03:54:20;;;;;;;8.48;4.25;;;;;;;;;;8399634;28;20037;-86
2022/07/25 03:58:22;;;;;;;6.45;3.97;;;;;;;;;;8399273;28;20114;-87
2022/07/25 04:02:27;;;;;;;11.52;4.53;;;;;;;;;;8399133;28;20531;-88
2022/07/25 04:06:29;;;;;;;7.15;4.30;;;;;;;;;;8398959;28;20044;-87
2022/07/25 04:10:33;;;;;;;6.72;4.60;;;;;;;;;;8398589;28;20119;-87
2022/07/25 04:14:36;;;;;;;6.65;4.10;;;;;;;;;;8398751;28;20127;-88
2022/07/25 04:18:40;;;;;;;43.50;21.05;;;;;;;;;;8398457;28;20041;-88
2022/07/25 04:22:42;;;;;;;8.40;4.65;;;;;;;;;;8398269;28;20067;-87
2022/07/25 04:26:46;;;;;;;7.75;4.95;;;;;;;;;;8398146;28;20097;-87
2022/07/25 04:30:49;;;;;;;6.47;4.88;;;;;;;;;;8398163;28;20048;-87
2022/07/25 04:34:54;;;;;;;18.45;10.35;;;;;;;;;;8398018;28;20036;-87
2022/07/25 04:38:57;;;;;;;10.57;6.05;;;;;;;;;;8398323;28;20135;-87
2022/07/25 04:42:59;;;;;;;7.65;5.20;;;;;;;;;;8397919;28;20481;-87
2022/07/25 04:47:02;;;;;;;10.82;6.70;;;;;;;;;;8397833;28;20473;-87
2022/07/25 04:51:06;;;;;;;10.85;5.13;;;;;;;;;;8397876;28;20040;-87
2022/07/25 04:55:10;;;;;;;10.65;5.57;;;;;;;;;;8397661;28;20045;-87
2022/07/25 04:59:13;;;;;;;8.07;5.30;;;;;;;;;;8397439;28;20090;-87
2022/07/25 05:03:16;;;;;;;8.30;5.72;;;;;;;;;;8383242;28;20044;-86
2022/07/25 05:07:20;;;;;;;7.35;4.53;;;;;;;;;;8384613;28;20044;-87
2022/07/25 05:11:23;;;;;;;7.00;4.63;;;;;;;;;;8395453;28;20075;-87
2022/07/25 05:15:26;;;;;;;6.00;4.43;;;;;;;;;;8397781;28;20118;-86
2022/07/25 05:19:29;;;;;;;6.88;3.85;;;;;;;;;;8397320;28;20048;-86
2022/07/25 05:23:33;;;;;;;8.38;4.03;;;;;;;;;;8396928;28;20123;-87
2022/07/25 05:27:37;;;;;;;9.00;4.78;;;;;;;;;;8397132;28;20094;-87
2022/07/25 05:31:40;;;;;;;10.10;4.28;;;;;;;;;;8396995;28;20123;-87
2022/07/25 05:35:43;;;;;;;6.00;3.75;;;;;;;;;;8397047;28;20687;-86
2022/07/25 05:39:47;;;;;;;11.63;4.72;;;;;;;;;;8396993;28;20083;-87
2022/07/25 05:43:51;;;;;;;8.93;4.30;;;;;;;;;;8393833;28;20059;-86
2022/07/25 05:47:54;;;;;;;5.75;3.70;;;;;;;;;;8388746;28;20115;-86
2022/07/25 05:51:57;;;;;;;6.78;3.80;;;;;;;;;;8383695;28;20095;-86
2022/07/25 05:56:02;;;;;;;4.40;3.47;;;;;;;;;;8391227;28;20079;-86
2022/07/25 06:00:06;;;;;;;7.53;3.78;;;;;;;;;;8399254;28;20044;-86
2022/07/25 06:04:09;;;;;;;9.55;3.85;;;;;;;;;;8384360;28;20056;-85
2022/07/25 06:08:12;;;;;;;5.30;3.35;;;;;;;;;;8395902;28;20067;-86
2022/07/25 06:12:17;;;;;;;3.65;2.67;;;;;;;;;;8396203;28;20041;-86
2022/07/25 06:16:20;;;;;;;3.08;2.63;;;;;;;;;;8383573;28;20041;-85
2022/07/25 06:20:23;;;;;;;8.18;2.90;;;;;;;;;;8377883;28;20055;-86
2022/07/25 06:24:26;;;;;;;4.38;2.53;;;;;;;;;;8393425;28;20549;-85
2022/07/25 06:28:31;;;;;;;4.38;2.30;;;;;;;;;;8380731;28;20052;-84
2022/07/25 06:32:35;;;;;;;3.35;2.47;;;;;;;;;;8396219;28;20041;-85
2022/07/25 06:36:38;;;;;;;7.97;2.65;;;;;;;;;;8394270;28;20040;-85
2022/07/25 06:40:41;;;;;;;4.45;2.40;;;;;;;;;;8388839;28;20045;-85
2022/07/25 06:44:45;;;;;;;4.25;2.17;;;;;;;;;;8400590;28;20442;-85
2022/07/25 06:48:49;;;;;;;3.90;2.00;;;;;;;;;;8401403;28;20045;-85
2022/07/25 06:52:53;;;;;;;5.90;2.08;;;;;;;;;;8373522;28;20392;-85
2022/07/25 06:56:57;;;;;;;3.17;1.80;;;;;;;;;;8396139;28;20056;-85
2022/07/25 07:01:02;;;;;;;3.25;1.95;;;;;;;;;;8397356;28;20086;-86
2022/07/25 07:05:07;;;;;;;4.95;2.30;;;;;;;;;;8391551;28;20476;-85
2022/07/25 07:09:10;;;;;;;4.15;2.03;;;;;;;;;;8391092;28;20040;-85
2022/07/25 07:13:17;;;;;;;1.95;1.70;;;;;;;;;;8398219;28;20041;-85
2022/07/25 07:17:22;;;;;;;3.05;2.13;;;;;;;;;;8385290;28;20037;-86
2022/07/25 07:21:25;;;;;;;2.28;1.77;;;;;;;;;;8386877;28;20045;-85
2022/07/25 07:25:29;;;;;;;3.47;2.15;;;;;;;;;;8400575;28;20048;-85
2022/07/25 07:29:32;;;;;;;5.47;2.30;;;;;;;;;;8400308;28;20052;-83
2022/07/25 07:33:41;;;;;;;2.97;1.88;;;;;;;;;;8399793;28;20105;-84
2022/07/25 07:37:48;;;;;;;5.00;2.10;;;;;;;;;;8386351;28;20060;-85
2022/07/25 07:41:54;;;;;;;2.63;2.05;;;;;;;;;;8365265;28;20056;-84
2022/07/25 07:45:59;;;;;;;3.50;2.10;;;;;;;;;;8368175;28;20049;-85
2022/07/25 07:50:05;;;;;;;3.33;1.90;;;;;;;;;;8377076;28;20128;-85
2022/07/25 07:58:29;;;;;;;3.33;2.00;;;;;;;;;;8372213;28;20048;-84
2022/07/25 08:02:32;;;;;;;2.55;1.67;;;;;;;;;;8376984;28;20048;-84
2022/07/25 08:06:36;;;;;;;4.78;2.25;;;;;;;;;;8392588;28;20048;-84
2022/07/25 08:10:43;;;;;;;5.13;1.98;;;;;;;;;;8359500;28;20051;-84
2022/07/25 08:14:49;;;;;;;1.75;1.65;;;;;;;;;;8372405;28;20048;-84
2022/07/25 08:18:58;;;;;;;5.40;1.83;;;;;;;;;;8363538;28;20053;-83
2022/07/25 08:23:06;;;;;;;3.17;1.50;;;;;;;;;;8391079;28;20056;-84
2022/07/25 08:27:11;;;;;;;2.70;1.60;;;;;;;;;;8379103;28;20044;-84
2022/07/25 08:31:14;;;;;;;6.72;1.70;;;;;;;;;;8370054;28;20572;-84
2022/07/25 08:35:18;;;;;;;2.67;1.63;;;;;;;;;;8374910;28;20045;-84
2022/07/25 08:39:23;;;;;;;2.35;1.67;;;;;;;;;;8385136;28;20059;-84
2022/07/25 08:43:28;;;;;;;2.65;1.80;;;;;;;;;;8383888;28;20053;-85
2022/07/25 08:47:32;;;;;;;1.75;1.38;;;;;;;;;;8367418;28;20041;-86
2022/07/25 08:51:35;;;;;;;4.18;1.85;;;;;;;;;;8377075;28;20069;-85
2022/07/25 08:55:42;;;;;;;3.33;2.00;;;;;;;;;;8377358;28;20448;-84
2022/07/25 08:59:45;;;;;;;2.67;1.77;;;;;;;;;;8372788;28;20052;-86
2022/07/25 09:03:48;;;;;;;3.28;1.90;;;;;;;;;;8389800;28;20407;-84
2022/07/25 09:07:53;;;;;;;5.18;1.95;;;;;;;;;;8378030;28;20053;-84
2022/07/25 09:11:57;;;;;;;2.20;1.90;;;;;;;;;;8360454;28;20044;-84
2022/07/25 09:16:04;;;;;;;4.05;1.95;;;;;;;;;;8377709;28;20048;-84
2022/07/25 09:20:09;;;;;;;3.53;1.92;;;;;;;;;;8377417;28;20071;-84
2022/07/25 09:24:15;;;;;;;3.17;1.73;;;;;;;;;;8377589;28;20055;-86
2022/07/25 09:28:22;;;;;;;3.67;1.70;;;;;;;;;;8371662;28;20131;-85
2022/07/25 09:32:28;;;;;;;4.20;2.00;;;;;;;;;;8381985;28;20045;-84
2022/07/25 09:36:42;;;;;;;3.25;1.98;;;;;;;;;;8391487;28;20400;-84
2022/07/25 09:40:57;;;;;;;3.30;1.75;;;;;;;;;;8386612;28;20045;-84
2022/07/25 09:45:11;;;;;;;2.20;1.60;;;;;;;;;;8384036;28;20045;-84
2022/07/25 09:49:19;;;;;;;2.85;1.95;;;;;;;;;;8386423;28;20090;-84
2022/07/25 09:53:25;;;;;;;2.60;1.80;;;;;;;;;;8371891;28;20041;-83
2022/07/25 09:57:28;;;;;;;4.13;1.83;;;;;;;;;;8373380;28;20044;-84
2022/07/25 10:01:40;;;;;;;3.70;1.85;;;;;;;;;;8382289;28;20044;-84
2022/07/25 10:06:08;;;;;;;2.15;1.80;;;;;;;;;;8376182;28;20093;-85
2022/07/25 10:10:22;;;;;;;3.88;2.03;;;;;;;;;;8378030;28;20048;-84
2022/07/25 10:14:41;;;;;;;1.77;1.63;;;;;;;;;;8397621;28;20044;-84
2022/07/25 10:19:06;;;;;;;2.17;1.80;;;;;;;;;;8379312;28;20041;-85
2022/07/25 10:23:37;;;;;;;3.28;2.03;;;;;;;;;;8377145;28;20040;-84
2022/07/25 10:28:07;;;;;;;3.13;2.10;;;;;;;;;;8376360;28;20515;-83
2022/07/25 10:32:34;;;;;;;2.10;1.90;;;;;;;;;;8383608;28;20049;-83
2022/07/25 10:36:58;;;;;;;5.45;2.10;;;;;;;;;;8368770;28;20053;-83
2022/07/25 10:41:16;;;;;;;;;;;;;;;;;;8387483;28;20049;-84
2022/07/25 10:46:10;;;;;;;2.90;1.88;;;;;;;;;;8364045;28;19978;-83
2022/07/25 10:50:36;;;;;;;4.43;1.90;;;;;;;;;;8386726;28;20364;-84
2022/07/25 10:55:04;;;;;;;5.70;2.22;;;;;;;;;;8381963;28;20412;-83
2022/07/25 10:59:29;;;;;;;4.63;2.40;;;;;;;;;;8396227;28;20055;-81
2022/07/25 11:03:37;;;;;;;4.68;2.05;;;;;;;;;;8379132;28;20047;-83
2022/07/25 11:07:51;;;;;;;2.25;1.90;;;;;;;;;;8392780;28;20404;-83
2022/07/25 11:11:58;;;;;;;2.10;1.80;;;;;;;;;;8386998;28;20049;-83
2022/07/25 11:16:01;;;;;;;3.92;2.25;;;;;;;;;;8398977;28;20044;-82
2022/07/25 11:20:07;;;;;;;2.13;1.80;;;;;;;;;;8399769;28;20101;-83
2022/07/25 11:24:11;;;;;;;2.25;1.88;;;;;;;;;;8400865;28;20055;-83
2022/07/25 11:28:17;;;;;;;3.72;1.98;;;;;;;;;;8400327;28;20057;-82
2022/07/25 11:32:21;;;;;;;5.13;2.38;;;;;;;;;;8386168;28;20048;-82
2022/07/25 11:36:25;;;;;;;2.55;2.05;;;;;;;;;;8400138;28;20373;-83
2022/07/25 11:40:29;;;;;;;3.17;1.95;;;;;;;;;;8399839;28;20048;-83
2022/07/25 11:44:35;;;;;;;3.65;1.85;;;;;;;;;;8393436;28;20051;-83
2022/07/25 11:48:41;;;;;;;3.13;1.88;;;;;;;;;;8380738;28;20045;-84
2022/07/25 11:52:45;;;;;;;5.32;2.30;;;;;;;;;;8398608;28;20040;-83
2022/07/25 11:56:49;;;;;;;2.08;1.88;;;;;;;;;;8390310;28;20427;-83
2022/07/25 12:00:54;;;;;;;3.08;1.80;;;;;;;;;;8395180;28;20041;-83
2022/07/25 12:04:59;;;;;;;3.80;1.92;;;;;;;;;;8400201;28;20041;-84
2022/07/25 12:09:11;;;;;;;4.20;2.25;;;;;;;;;;8399125;28;20036;-82
2022/07/25 12:13:23;;;;;;;2.72;1.80;;;;;;;;;;8384830;28;20521;-84
2022/07/25 12:17:28;;;;;;;3.60;2.22;;;;;;;;;;8387484;28;20045;-84
2022/07/25 12:21:32;;;;;;;5.70;2.03;;;;;;;;;;8396475;28;20040;-83
2022/07/25 12:25:36;;;;;;;3.15;2.00;;;;;;;;;;8398114;28;20110;-82
2022/07/25 12:29:40;;;;;;;3.15;2.00;;;;;;;;;;8398153;28;20068;-82
2022/07/25 12:33:47;;;;;;;2.78;1.83;;;;;;;;;;8396663;28;20048;-83
2022/07/25 12:37:57;;;;;;;3.25;2.10;;;;;;;;;;8366600;28;20076;-83
2022/07/25 12:42:02;;;;;;;2.47;1.85;;;;;;;;;;8366863;28;20048;-82
2022/07/25 12:46:11;;;;;;;2.03;1.58;;;;;;;;;;8378971;28;20206;-84
2022/07/25 12:50:18;;;;;;;2.38;1.73;;;;;;;;;;8392959;28;20040;-83
2022/07/25 12:54:31;;;;;;;5.20;1.67;;;;;;;;;;8382843;28;20041;-83
2022/07/25 12:58:35;;;;;;;2.03;1.60;;;;;;;;;;8376829;28;20072;-82
2022/07/25 13:02:39;;;;;;;3.72;1.70;;;;;;;;;;8392110;28;20473;-82
2022/07/25 13:06:44;;;;;;;2.03;1.70;;;;;;;;;;8392109;28;20056;-83
2022/07/25 13:10:48;;;;;;;4.05;1.83;;;;;;;;;;8369619;28;20056;-83
2022/07/25 13:14:52;;;;;;;3.92;1.60;;;;;;;;;;8380232;28;20123;-82
2022/07/25 13:18:55;;;;;;;3.65;1.70;;;;;;;;;;8388250;28;20048;-83
2022/07/25 13:23:01;;;;;;;2.03;1.75;;;;;;;;;;8376572;28;20135;-83
2022/07/25 13:27:05;;;;;;;2.70;1.75;;;;;;;;;;8363347;28;20044;-83
2022/07/25 13:31:16;;;;;;;3.50;1.65;;;;;;;;;;8354971;28;20408;-82
2022/07/25 13:35:22;;;;;;;2.42;1.70;;;;;;;;;;8377512;28;20055;-82
2022/07/25 13:39:30;;;;;;;3.40;1.92;;;;;;;;;;8390397;28;20044;-83
2022/07/25 13:43:34;;;;;;;2.42;1.83;;;;;;;;;;8375065;28;20060;-83
2022/07/25 13:47:38;;;;;;;4.38;1.92;;;;;;;;;;8388799;28;20072;-83
2022/07/25 13:51:49;;;;;;;3.80;1.83;;;;;;;;;;8360847;28;20360;-82
2022/07/25 13:56:09;;;;;;;4.13;2.10;;;;;;;;;;8377643;28;20049;-82
2022/07/25 14:00:18;;;;;;;2.90;1.70;;;;;;;;;;8390842;28;20052;-82
2022/07/25 14:04:25;;;;;;;3.47;1.60;;;;;;;;;;8376664;28;20045;-82
2022/07/25 14:08:35;;;;;;;2.22;1.75;;;;;;;;;;8391429;28;20044;-82
2022/07/25 14:12:53;;;;;;;1.83;1.52;;;;;;;;;;8388173;28;20049;-82
2022/07/25 14:17:00;;;;;;;3.20;1.60;;;;;;;;;;8382707;28;20083;-83
2022/07/25 14:21:15;;;;;;;3.13;1.77;;;;;;;;;;8378974;28;20059;-82
2022/07/25 14:25:26;;;;;;;3.78;1.73;;;;;;;;;;8396077;28;20060;-83
2022/07/25 14:29:32;;;;;;;2.65;1.70;;;;;;;;;;8395512;28;20049;-83
2022/07/25 14:33:42;;;;;;;7.85;2.00;;;;;;;;;;8370371;28;20045;-83
2022/07/25 14:37:56;;;;;;;2.80;1.60;;;;;;;;;;8374634;28;21374;-83
2022/07/25 14:42:04;;;;;;;4.85;1.55;;;;;;;;;;8380058;28;20079;-82
2022/07/25 14:46:09;;;;;;;1.95;1.52;;;;;;;;;;8391882;28;20048;-83
2022/07/25 14:50:12;;;;;;;3.20;1.83;;;;;;;;;;8394297;28;20056;-81
2022/07/25 14:54:15;;;;;;;1.58;1.48;;;;;;;;;;8393486;28;20072;-82
2022/07/25 14:58:19;;;;;;;2.53;1.67;;;;;;;;;;8399484;28;20457;-82
2022/07/25 15:02:23;;;;;;;3.60;1.70;;;;;;;;;;8386189;28;20111;-82
2022/07/25 15:06:27;;;;;;;2.70;1.70;;;;;;;;;;8400862;28;20060;-82
2022/07/25 15:10:30;;;;;;;2.22;1.40;;;;;;;;;;8400788;28;20037;-81
2022/07/25 15:14:34;;;;;;;3.15;1.50;;;;;;;;;;8400958;28;20472;-81
2022/07/25 15:18:39;;;;;;;4.40;1.50;;;;;;;;;;8401270;28;20427;-82
2022/07/25 15:22:43;;;;;;;2.70;1.42;;;;;;;;;;8386491;28;20043;-83
2022/07/25 15:26:46;;;;;;;3.63;1.90;;;;;;;;;;8400264;28;20071;-82
2022/07/25 15:30:50;;;;;;;2.63;1.58;;;;;;;;;;8400299;28;20106;-81
2022/07/25 15:34:55;;;;;;;3.55;1.50;;;;;;;;;;8400326;28;20123;-82
2022/07/25 15:38:58;;;;;;;4.20;1.75;;;;;;;;;;8400045;28;20076;-81
2022/07/25 15:43:01;;;;;;;2.83;1.65;;;;;;;;;;8385978;28;20045;-80
2022/07/25 15:47:08;;;;;;;2.45;1.60;;;;;;;;;;8386422;28;20534;-84
2022/07/25 15:51:15;;;;;;;2.53;1.55;;;;;;;;;;8386140;28;20048;-82
2022/07/25 15:55:18;;;;;;;2.92;1.63;;;;;;;;;;8399670;28;20075;-82
2022/07/25 15:59:22;;;;;;;2.55;1.60;;;;;;;;;;8385339;28;20045;-82
2022/07/25 16:03:26;;;;;;;3.20;1.92;;;;;;;;;;8386104;28;20045;-84
2022/07/25 16:07:31;;;;;;;3.63;1.85;;;;;;;;;;8393922;28;20480;-84
2022/07/25 16:11:37;;;;;;;4.22;2.38;;;;;;;;;;8394582;28;20048;-85
2022/07/25 16:15:41;;;;;;;3.65;2.10;;;;;;;;;;8395344;28;20052;-86
2022/07/25 16:19:46;;;;;;;3.67;1.70;;;;;;;;;;8381045;28;20515;-84
2022/07/25 16:23:52;;;;;;;5.10;2.22;;;;;;;;;;8394376;28;20050;-83
2022/07/25 16:27:55;;;;;;;4.68;1.95;;;;;;;;;;8381661;28;20466;-84
2022/07/25 16:31:59;;;;;;;4.30;1.92;;;;;;;;;;8380082;28;20481;-84
2022/07/25 16:36:07;;;;;;;3.75;1.90;;;;;;;;;;8388078;28;20055;-84
2022/07/25 16:40:14;;;;;;;2.42;1.92;;;;;;;;;;8366808;28;20048;-85
2022/07/25 16:44:17;;;;;;;2.95;1.70;;;;;;;;;;8362857;28;20036;-84
2022/07/25 16:48:26;;;;;;;3.17;2.00;;;;;;;;;;8365297;28;20048;-85
2022/07/25 16:52:31;;;;;;;3.33;1.90;;;;;;;;;;8363255;28;20045;-84
2022/07/25 16:56:37;;;;;;;5.00;2.00;;;;;;;;;;8362280;28;20045;-84
2022/07/25 17:00:41;;;;;;;4.40;2.05;;;;;;;;;;8362700;28;20085;-84
2022/07/25 17:04:44;;;;;;;2.70;1.90;;;;;;;;;;8364698;28;20041;-84
2022/07/25 17:08:50;;;;;;;4.15;2.17;;;;;;;;;;8362133;28;20056;-83
2022/07/25 17:12:59;;;;;;;2.78;1.80;;;;;;;;;;8362000;28;20049;-85
2022/07/25 17:17:06;;;;;;;3.05;2.00;;;;;;;;;;8362528;28;20160;-84
2022/07/25 17:21:14;;;;;;;3.60;2.30;;;;;;;;;;8361034;28;20045;-85
2022/07/25 17:25:20;;;;;;;6.28;2.28;;;;;;;;;;8362278;28;20090;-85
2022/07/25 17:29:53;;;;;;;2.97;2.20;;;;;;;;;;8361215;28;20123;-85
2022/07/25 17:34:25;;;;;;;6.18;2.22;;;;;;;;;;8358661;28;20090;-84
2022/07/25 17:38:29;;;;;;;3.60;2.10;;;;;;;;;;8361588;28;20049;-85
2022/07/25 17:42:33;;;;;;;5.53;2.65;;;;;;;;;;8361480;28;20049;-85
2022/07/25 17:46:38;;;;;;;4.28;2.40;;;;;;;;;;8361841;28;20133;-84
2022/07/25 17:50:44;;;;;;;5.35;2.40;;;;;;;;;;8361670;28;20048;-83
2022/07/25 17:54:52;;;;;;;4.82;2.40;;;;;;;;;;8362166;28;20060;-83
2022/07/25 17:59:15;;;;;;;5.95;2.83;;;;;;;;;;8379193;28;20045;-83
2022/07/25 18:03:39;;;;;;;4.68;2.60;;;;;;;;;;8366403;28;20491;-83
2022/07/25 18:08:05;;;;;;;3.72;2.30;;;;;;;;;;8374187;28;20803;-83
2022/07/25 18:12:19;;;;;;;5.38;2.53;;;;;;;;;;8383055;28;20052;-83
2022/07/25 18:16:40;;;;;;;6.35;3.17;;;;;;;;;;8390771;28;20041;-83
2022/07/25 18:21:03;;;;;;;5.47;3.25;;;;;;;;;;8390848;28;20048;-83
2022/07/25 18:25:21;;;;;;;8.18;3.25;;;;;;;;;;8372499;28;20441;-83
2022/07/25 18:29:51;;;;;;;7.88;3.67;;;;;;;;;;8381242;28;20181;-83
2022/07/25 18:34:08;;;;;;;7.63;3.20;;;;;;;;;;8397985;28;20064;-83
2022/07/25 18:38:57;;;;;;;6.38;3.28;;;;;;;;;;8398521;28;20477;-83
2022/07/25 18:43:21;;;;;;;6.55;3.22;;;;;;;;;;8387199;28;20098;-83
2022/07/25 18:47:49;;;;;;;5.67;3.20;;;;;;;;;;8398584;28;20048;-84
2022/07/25 18:52:23;;;;;;;7.72;4.15;;;;;;;;;;8398600;28;20076;-84
2022/07/25 18:57:02;;;;;;;7.00;3.95;;;;;;;;;;8380354;28;20060;-83
2022/07/25 19:01:25;;;;;;;10.15;5.15;;;;;;;;;;8382892;28;20044;-84
2022/07/25 19:06:03;;;;;;;8.27;4.65;;;;;;;;;;8399729;28;20121;-84
2022/07/25 19:10:35;;;;;;;8.30;4.43;;;;;;;;;;8400138;28;20472;-83
2022/07/25 19:14:44;;;;;;;8.70;3.97;;;;;;;;;;8389058;28;20047;-83
2022/07/25 19:18:48;;;;;;;6.78;3.78;;;;;;;;;;8390911;28;20443;-83
2022/07/25 19:22:52;;;;;;;4.57;3.25;;;;;;;;;;8407340;28;20052;-83
2022/07/25 19:26:56;;;;;;;6.18;3.85;;;;;;;;;;8412444;28;20111;-84
2022/07/25 19:31:01;;;;;;;8.65;3.95;;;;;;;;;;8405303;28;20435;-84
2022/07/25 19:35:07;;;;;;;7.20;4.07;;;;;;;;;;8392784;28;20549;-83
2022/07/25 19:39:11;;;;;;;10.18;3.70;;;;;;;;;;8390481;28;20071;-84
2022/07/25 19:43:28;;;;;;;5.65;4.05;;;;;;;;;;8393164;28;20151;-83
2022/07/25 19:47:38;;;;;;;5.47;3.50;;;;;;;;;;8395527;28;20047;-83
2022/07/25 19:51:44;;;;;;;4.90;3.60;;;;;;;;;;8396262;28;20467;-84
2022/07/25 19:55:49;;;;;;;5.03;3.60;;;;;;;;;;8406508;28;20100;-84
2022/07/25 19:59:54;;;;;;;5.45;3.67;;;;;;;;;;8407173;28;20072;-84
2022/07/25 20:03:59;;;;;;;12.20;4.32;;;;;;;;;;8387621;28;20048;-84
2022/07/25 20:08:03;;;;;;;6.80;4.05;;;;;;;;;;8386214;28;20145;-84
2022/07/25 20:12:07;;;;;;;5.45;3.90;;;;;;;;;;8395912;28;20044;-84
2022/07/25 20:16:11;;;;;;;5.78;3.53;;;;;;;;;;8389081;28;20052;-84
2022/07/25 20:20:16;;;;;;;7.03;4.07;;;;;;;;;;8399167;28;20044;-84
2022/07/25 20:24:20;;;;;;;8.60;4.22;;;;;;;;;;8399301;28;20044;-84
2022/07/25 20:28:24;;;;;;;7.55;3.97;;;;;;;;;;8397528;28;20508;-84
2022/07/25 20:32:28;;;;;;;6.38;4.40;;;;;;;;;;8395219;28;20590;-84
2022/07/25 20:36:33;;;;;;;5.97;3.95;;;;;;;;;;8390138;28;20128;-84
2022/07/25 20:40:37;;;;;;;7.38;3.80;;;;;;;;;;8398476;28;20048;-84
2022/07/25 20:44:40;;;;;;;7.07;4.18;;;;;;;;;;8384214;28;20488;-85
2022/07/25 20:48:44;;;;;;;8.38;3.80;;;;;;;;;;8398200;28;20048;-85
2022/07/25 20:52:49;;;;;;;5.88;4.50;;;;;;;;;;8398046;28;20048;-84
2022/07/25 20:56:53;;;;;;;8.18;3.85;;;;;;;;;;8380527;28;20045;-84
2022/07/25 21:00:57;;;;;;;6.35;4.30;;;;;;;;;;8383583;28;20067;-85
2022/07/25 21:05:01;;;;;;;5.95;3.92;;;;;;;;;;8397718;28;20047;-85
2022/07/25 21:09:07;;;;;;;6.38;4.15;;;;;;;;;;8397671;28;20135;-84
2022/07/25 21:13:10;;;;;;;5.75;4.22;;;;;;;;;;8397535;28;20032;-84
2022/07/25 21:17:13;;;;;;;8.35;4.30;;;;;;;;;;8397180;28;20135;-84
2022/07/25 21:21:17;;;;;;;7.43;4.32;;;;;;;;;;8397261;28;20044;-84
2022/07/25 21:25:22;;;;;;;7.32;4.63;;;;;;;;;;8397137;28;20051;-85
2022/07/25 21:29:26;;;;;;;6.85;4.10;;;;;;;;;;8396843;28;20053;-85
2022/07/25 21:33:28;;;;;;;7.88;4.38;;;;;;;;;;8397016;28;20045;-85
2022/07/25 21:37:32;;;;;;;7.97;4.53;;;;;;;;;;8386773;28;20046;-85
2022/07/25 21:41:36;;;;;;;7.45;4.78;;;;;;;;;;8396854;28;20037;-85
2022/07/25 21:45:39;;;;;;;8.00;4.55;;;;;;;;;;8396655;28;20041;-85
2022/07/25 21:54:01;;;;;;;7.97;4.80;;;;;;;;;;8382530;28;20044;-85
2022/07/25 21:58:06;;;;;;;6.40;4.72;;;;;;;;;;8396992;28;20449;-85
2022/07/25 22:02:09;;;;;;;11.82;4.63;;;;;;;;;;8397323;28;20481;-85
2022/07/25 22:06:12;;;;;;;6.10;4.40;;;;;;;;;;8399830;28;20051;-85
2022/07/25 22:10:17;;;;;;;6.70;4.40;;;;;;;;;;8395142;28;20044;-85
2022/07/25 22:14:21;;;;;;;9.00;4.88;;;;;;;;;;8391618;28;20044;-85
2022/07/25 22:18:24;;;;;;;8.98;4.43;;;;;;;;;;8389023;28;20048;-85
2022/07/25 22:22:28;;;;;;;7.43;4.60;;;;;;;;;;8392021;28;20045;-85
2022/07/25 22:26:31;;;;;;;7.72;4.75;;;;;;;;;;8399782;28;20048;-85
2022/07/25 22:30:35;;;;;;;7.05;4.90;;;;;;;;;;8402374;28;20052;-85
2022/07/25 22:34:38;;;;;;;7.65;5.18;;;;;;;;;;8402455;28;20044;-85
2022/07/25 22:38:41;;;;;;;6.53;4.60;;;;;;;;;;8402284;28;20052;-85
2022/07/25 22:42:43;;;;;;;7.03;4.80;;;;;;;;;;8402074;28;20055;-85
2022/07/25 22:46:47;;;;;;;6.82;4.25;;;;;;;;;;8401994;28;20049;-85
2022/07/25 22:50:50;;;;;;;6.82;4.72;;;;;;;;;;8387720;28;20131;-85
2022/07/25 22:54:53;;;;;;;9.77;4.47;;;;;;;;;;8401752;28;20396;-85
2022/07/25 22:58:56;;;;;;;7.72;4.88;;;;;;;;;;8401421;28;20075;-86
2022/07/25 23:03:00;;;;;;;6.20;4.50;;;;;;;;;;8401168;28;20040;-85
2022/07/25 23:07:02;;;;;;;7.53;4.35;;;;;;;;;;8391417;28;20052;-85
2022/07/25 23:11:05;;;;;;;6.53;4.45;;;;;;;;;;8397058;28;20051;-85
2022/07/25 23:15:09;;;;;;;6.40;4.50;;;;;;;;;;8401264;28;20439;-86
2022/07/25 23:19:13;;;;;;;9.98;5.45;;;;;;;;;;8399964;28;20082;-86
2022/07/25 23:23:16;;;;;;;6.43;4.90;;;;;;;;;;8400550;28;20044;-85
2022/07/25 23:27:18;;;;;;;8.32;4.70;;;;;;;;;;8385963;28;20119;-85
2022/07/25 23:31:21;;;;;;;8.38;4.85;;;;;;;;;;8390625;28;20132;-85
2022/07/25 23:35:32;;;;;;;7.97;4.13;;;;;;;;;;8395888;28;20491;-85
2022/07/25 23:39:35;;;;;;;8.30;4.43;;;;;;;;;;8389137;28;20053;-85
2022/07/25 23:43:38;;;;;;;8.40;5.07;;;;;;;;;;8400093;28;20041;-85
2022/07/25 23:47:41;;;;;;;6.72;4.57;;;;;;;;;;8385850;28;20042;-86
2022/07/25 23:51:45;;;;;;;6.85;4.97;;;;;;;;;;8399980;28;20078;-85
2022/07/25 23:55:48;;;;;;;7.50;4.63;;;;;;;;;;8399818;28;20048;-85
2022/07/25 23:59:50;;;;;;;9.98;5.18;;;;;;;;;;8385625;28;20049;-85
